createdAt,value
2017-10-24T00:04:40.077Z,10.70
2017-10-24T00:07:08.942Z,10.70
2017-10-24T00:09:37.783Z,10.70
2017-10-24T00:12:06.646Z,10.80
2017-10-24T00:14:36.510Z,10.80
2017-10-24T00:17:05.404Z,10.80
2017-10-24T00:19:34.266Z,10.80
2017-10-24T00:22:03.110Z,10.80
2017-10-24T00:24:32.772Z,10.70
2017-10-24T00:27:01.635Z,10.70
2017-10-24T00:29:30.518Z,10.80
2017-10-24T00:31:59.409Z,10.80
2017-10-24T00:34:29.221Z,10.80
2017-10-24T00:37:00.674Z,10.80
2017-10-24T00:39:29.578Z,10.80
2017-10-24T00:41:58.465Z,10.80
2017-10-24T00:44:27.377Z,10.80
2017-10-24T00:46:56.249Z,10.80
2017-10-24T00:49:25.122Z,10.90
2017-10-24T00:51:55.686Z,10.80
2017-10-24T00:54:24.544Z,10.80
2017-10-24T00:56:53.859Z,10.80
2017-10-24T00:59:22.021Z,10.80
2017-10-24T01:01:51.317Z,10.80
2017-10-24T01:04:20.171Z,10.80
2017-10-24T01:06:49.046Z,10.90
2017-10-24T01:09:17.899Z,10.90
2017-10-24T01:11:47.558Z,10.90
2017-10-24T01:14:16.415Z,10.90
2017-10-24T01:16:45.279Z,10.90
2017-10-24T01:19:14.562Z,10.90
2017-10-24T01:21:43.252Z,10.80
2017-10-24T01:24:12.600Z,10.90
2017-10-24T01:26:40.950Z,10.80
2017-10-24T01:29:10.229Z,10.80
2017-10-24T01:31:38.894Z,10.80
2017-10-24T01:34:07.772Z,10.80
2017-10-24T01:36:35.961Z,10.70
2017-10-24T01:39:05.231Z,10.70
2017-10-24T01:41:33.419Z,10.70
2017-10-24T01:44:01.653Z,10.70
2017-10-24T01:46:29.823Z,10.60
2017-10-24T01:48:58.515Z,10.60
2017-10-24T01:51:27.809Z,10.60
2017-10-24T01:53:56.985Z,10.60
2017-10-24T01:56:25.495Z,10.60
2017-10-24T01:58:54.770Z,10.60
2017-10-24T02:01:22.919Z,10.60
2017-10-24T02:03:51.439Z,10.60
2017-10-24T02:06:20.496Z,10.60
2017-10-24T02:08:48.662Z,10.60
2017-10-24T02:11:17.174Z,10.50
2017-10-24T02:13:45.728Z,10.60
2017-10-24T02:16:13.917Z,10.60
2017-10-24T02:18:42.113Z,10.50
2017-10-24T02:21:10.626Z,10.50
2017-10-24T02:23:40.260Z,10.50
2017-10-24T02:26:09.114Z,10.50
2017-10-24T02:28:37.971Z,10.50
2017-10-24T02:31:06.836Z,10.50
2017-10-24T02:33:36.279Z,10.50
2017-10-24T02:36:05.143Z,10.50
2017-10-24T02:38:34.005Z,10.50
2017-10-24T02:41:03.628Z,10.50
2017-10-24T02:43:32.495Z,10.50
2017-10-24T02:46:02.125Z,10.50
2017-10-24T02:48:30.991Z,10.50
2017-10-24T02:50:59.963Z,10.50
2017-10-24T02:53:28.867Z,10.50
2017-10-24T02:55:59.027Z,10.40
2017-10-24T02:58:29.822Z,10.40
2017-10-24T03:00:58.684Z,10.40
2017-10-24T03:03:27.537Z,10.50
2017-10-24T03:05:57.647Z,10.50
2017-10-24T03:08:27.279Z,10.50
2017-10-24T03:10:55.791Z,10.50
2017-10-24T03:13:24.641Z,10.50
2017-10-24T03:15:53.490Z,10.50
2017-10-24T03:18:23.219Z,10.50
2017-10-24T03:20:52.159Z,10.50
2017-10-24T03:23:21.011Z,10.50
2017-10-24T03:25:49.868Z,10.60
2017-10-24T03:28:18.387Z,10.50
2017-10-24T03:30:47.992Z,10.50
2017-10-24T03:33:16.834Z,10.50
2017-10-24T03:35:45.699Z,10.50
2017-10-24T03:38:14.554Z,10.50
2017-10-24T03:40:43.416Z,10.50
2017-10-24T03:43:12.271Z,10.50
2017-10-24T03:45:41.963Z,10.50
2017-10-24T03:48:11.610Z,10.50
2017-10-24T03:50:40.476Z,10.50
2017-10-24T03:53:09.336Z,10.50
2017-10-24T03:55:38.200Z,10.50
2017-10-24T03:58:07.055Z,10.50
2017-10-24T04:00:35.919Z,10.50
2017-10-24T04:03:05.576Z,10.50
2017-10-24T04:05:34.283Z,10.50
2017-10-24T04:51:43.984Z,10.50
2017-10-24T04:54:14.228Z,10.60
2017-10-24T04:56:43.090Z,10.60
2017-10-24T04:59:13.415Z,10.70
2017-10-24T05:01:43.054Z,10.70
2017-10-24T05:04:13.239Z,10.70
2017-10-24T05:06:42.865Z,10.70
2017-10-24T05:09:11.735Z,10.70
2017-10-24T05:11:40.595Z,10.80
2017-10-24T05:14:10.923Z,10.80
2017-10-24T05:16:40.761Z,10.80
2017-10-24T05:19:09.329Z,10.80
2017-10-24T05:21:38.769Z,10.80
2017-10-24T05:24:08.398Z,10.90
2017-10-24T05:26:37.247Z,10.90
2017-10-24T05:29:06.013Z,10.90
2017-10-24T05:31:34.876Z,10.90
2017-10-24T05:34:03.736Z,10.90
2017-10-24T05:36:33.184Z,10.90
2017-10-24T05:39:02.806Z,11.00
2017-10-24T05:41:31.657Z,11.00
2017-10-24T05:44:00.826Z,11.00
2017-10-24T05:46:29.740Z,11.00
2017-10-24T05:48:59.377Z,11.00
2017-10-24T05:51:28.236Z,11.00
2017-10-24T05:53:57.847Z,11.10
2017-10-24T05:56:27.479Z,11.10
2017-10-24T05:58:56.372Z,11.10
2017-10-24T06:01:25.263Z,11.20
2017-10-24T06:03:54.127Z,11.20
2017-10-24T06:06:23.760Z,11.20
2017-10-24T06:08:59.682Z,11.20
2017-10-24T06:11:38.124Z,11.20
2017-10-24T06:17:59.772Z,11.20
2017-10-24T06:20:28.631Z,11.20
2017-10-24T06:22:57.757Z,11.30
2017-10-24T06:25:28.269Z,11.30
2017-10-24T06:27:57.904Z,11.30
2017-10-24T06:30:27.227Z,11.30
2017-10-24T06:32:56.090Z,11.40
2017-10-24T06:35:25.748Z,11.40
2017-10-24T06:37:54.165Z,11.30
2017-10-24T06:40:23.796Z,11.40
2017-10-24T06:42:53.460Z,11.30
2017-10-24T06:45:23.293Z,11.40
2017-10-24T06:47:52.926Z,11.40
2017-10-24T06:50:23.295Z,11.40
2017-10-24T06:52:53.287Z,11.50
2017-10-24T06:55:22.175Z,11.40
2017-10-24T06:57:52.081Z,11.40
2017-10-24T07:00:20.982Z,11.40
2017-10-24T07:02:50.338Z,11.50
2017-10-24T07:05:19.302Z,11.50
2017-10-24T07:07:47.975Z,11.50
2017-10-24T07:10:16.654Z,11.50
2017-10-24T07:12:46.953Z,11.50
2017-10-24T07:15:17.267Z,11.60
2017-10-24T07:17:45.975Z,11.60
2017-10-24T07:20:14.650Z,11.60
2017-10-24T07:22:45.328Z,11.60
2017-10-24T07:25:15.061Z,11.60
2017-10-24T07:27:44.724Z,11.60
2017-10-24T07:30:13.594Z,11.60
2017-10-24T07:32:43.234Z,11.70
2017-10-24T09:12:38.577Z,11.70
2017-10-24T09:18:05.151Z,13.10
2017-10-24T09:20:34.814Z,13.10
2017-10-24T09:23:05.625Z,13.10
2017-10-24T09:25:34.515Z,13.10
2017-10-24T09:28:08.982Z,13.20
2017-10-24T09:30:40.418Z,13.10
2017-10-24T09:33:09.838Z,13.20
2017-10-24T09:35:40.073Z,13.20
2017-10-24T09:38:08.970Z,13.30
2017-10-24T09:40:38.419Z,13.40
2017-10-24T09:43:07.096Z,13.30
2017-10-24T09:45:35.960Z,13.40
2017-10-24T09:48:04.802Z,13.50
2017-10-24T09:50:45.970Z,13.80
2017-10-24T09:53:14.880Z,13.90
2017-10-24T09:55:43.363Z,14.20
2017-10-24T09:58:11.553Z,14.40
2017-10-24T10:00:41.218Z,14.50
2017-10-24T10:03:10.446Z,14.60
2017-10-24T10:05:39.423Z,14.50
2017-10-24T10:08:08.312Z,14.40
2017-10-24T10:10:37.203Z,14.40
2017-10-24T10:13:07.699Z,14.40
2017-10-24T10:15:37.048Z,14.40
2017-10-24T10:18:07.003Z,14.40
2017-10-24T10:20:37.299Z,14.50
2017-10-24T10:23:06.048Z,14.50
2017-10-24T10:25:34.924Z,14.60
2017-10-24T10:28:04.556Z,15.00
2017-10-24T10:30:33.435Z,15.00
2017-10-24T10:33:03.062Z,15.30
2017-10-24T10:35:32.259Z,15.30
2017-10-24T10:38:01.146Z,15.40
2017-10-24T10:40:29.914Z,15.50
2017-10-24T10:42:59.570Z,15.90
2017-10-24T10:45:28.571Z,15.90
2017-10-24T10:47:57.801Z,15.90
2017-10-24T10:50:26.689Z,16.00
2017-10-24T10:52:55.562Z,16.10
2017-10-24T10:55:24.423Z,16.10
2017-10-24T10:57:53.275Z,16.20
2017-10-24T11:00:21.544Z,16.20
2017-10-24T11:02:52.291Z,16.30
2017-10-24T11:05:21.921Z,16.50
2017-10-24T11:07:51.603Z,16.50
2017-10-24T11:10:20.584Z,16.60
2017-10-24T11:12:50.684Z,16.60
2017-10-24T11:15:19.424Z,16.60
2017-10-24T11:17:49.879Z,16.60
2017-10-24T11:20:19.814Z,16.60
2017-10-24T11:22:49.701Z,16.60
2017-10-24T11:25:20.979Z,16.60
2017-10-24T11:27:50.323Z,16.50
2017-10-24T11:30:20.539Z,16.20
2017-10-24T11:32:49.964Z,16.20
2017-10-24T11:35:21.709Z,16.10
2017-10-24T11:37:51.063Z,16.00
2017-10-24T11:40:20.052Z,15.90
2017-10-24T11:42:49.746Z,15.90
2017-10-24T11:45:18.601Z,15.90
2017-10-24T11:47:48.198Z,15.80
2017-10-24T11:50:17.060Z,15.70
2017-10-24T11:52:45.750Z,15.70
2017-10-24T11:55:15.537Z,15.70
2017-10-24T11:57:44.389Z,15.70
2017-10-24T12:00:14.150Z,15.70
2017-10-24T12:02:51.724Z,15.80
2017-10-24T12:05:20.793Z,15.70
2017-10-24T12:07:50.023Z,15.70
2017-10-24T12:10:20.280Z,15.70
2017-10-24T12:12:49.487Z,15.70
2017-10-24T12:15:19.213Z,15.60
2017-10-24T12:17:48.104Z,15.50
2017-10-24T12:20:16.967Z,15.50
2017-10-24T12:22:46.679Z,15.40
2017-10-24T12:25:16.310Z,15.30
2017-10-24T12:27:45.179Z,15.30
2017-10-24T12:30:14.042Z,15.30
2017-10-24T12:32:42.440Z,15.30
2017-10-24T12:35:11.958Z,15.30
2017-10-24T12:40:36.458Z,15.40
2017-10-24T12:43:05.979Z,15.40
2017-10-24T12:45:34.373Z,15.30
2017-10-24T12:48:03.581Z,15.30
2017-10-24T12:53:14.702Z,15.20
2017-10-24T12:55:43.391Z,15.20
2017-10-24T12:58:17.029Z,15.30
2017-10-24T13:00:47.139Z,15.30
2017-10-24T13:03:15.820Z,15.30
2017-10-24T13:05:44.172Z,15.30
2017-10-24T13:08:16.302Z,15.50
2017-10-24T13:10:44.303Z,15.50
2017-10-24T13:13:12.981Z,15.50
2017-10-24T13:15:41.652Z,15.60
2017-10-24T13:18:11.833Z,15.70
2017-10-24T13:20:41.695Z,15.80
2017-10-24T13:23:11.172Z,15.90
2017-10-24T13:25:40.035Z,16.00
2017-10-24T13:28:09.412Z,16.10
2017-10-24T13:30:38.283Z,16.20
2017-10-24T13:33:07.164Z,16.20
2017-10-24T13:35:36.011Z,16.30
2017-10-24T13:38:06.360Z,16.40
2017-10-24T13:40:36.016Z,16.40
2017-10-24T13:43:05.083Z,16.50
2017-10-24T13:45:33.963Z,16.50
2017-10-24T13:48:04.710Z,16.50
2017-10-24T13:50:34.095Z,16.50
2017-10-24T13:53:03.381Z,16.40
2017-10-24T13:55:31.963Z,16.40
2017-10-24T13:58:01.706Z,16.40
2017-10-24T14:00:31.659Z,16.30
2017-10-24T14:03:04.271Z,16.30
2017-10-24T14:05:38.686Z,16.30
2017-10-24T14:08:13.863Z,16.30
2017-10-24T14:10:44.257Z,16.30
2017-10-24T14:13:13.779Z,16.40
2017-10-24T14:15:42.641Z,16.50
2017-10-24T14:18:13.176Z,17.00
2017-10-24T14:20:42.048Z,17.00
2017-10-24T14:23:10.903Z,17.30
2017-10-24T14:25:39.767Z,17.50
2017-10-24T14:28:08.615Z,17.90
2017-10-24T14:30:37.471Z,18.40
2017-10-24T14:33:06.329Z,19.00
2017-10-24T14:35:35.173Z,18.90
2017-10-24T14:38:04.011Z,19.20
2017-10-24T14:40:32.878Z,19.30
2017-10-24T14:43:01.807Z,19.90
2017-10-24T14:45:30.666Z,20.30
2017-10-24T14:48:00.215Z,20.80
2017-10-24T14:50:29.073Z,21.30
2017-10-24T14:52:58.692Z,21.60
2017-10-24T14:55:27.556Z,21.50
2017-10-24T14:57:56.406Z,21.60
2017-10-24T15:00:25.279Z,21.40
2017-10-24T15:02:54.141Z,21.40
2017-10-24T15:05:22.979Z,21.10
2017-10-24T15:07:51.819Z,20.50
2017-10-24T15:10:21.549Z,19.70
2017-10-24T15:12:50.434Z,19.70
2017-10-24T15:15:20.131Z,18.80
2017-10-24T15:17:48.984Z,18.80
2017-10-24T15:20:17.852Z,18.40
2017-10-24T15:22:46.688Z,18.10
2017-10-24T15:25:16.355Z,17.90
2017-10-24T15:27:45.204Z,17.50
2017-10-24T15:30:14.830Z,17.00
2017-10-24T15:32:44.560Z,16.90
2017-10-24T15:35:13.423Z,16.80
2017-10-24T15:37:43.031Z,16.60
2017-10-24T15:40:13.065Z,16.40
2017-10-24T15:42:41.909Z,16.40
2017-10-24T15:45:10.773Z,16.30
2017-10-24T15:47:39.609Z,16.10
2017-10-24T15:50:08.459Z,16.00
2017-10-24T15:52:38.641Z,15.90
2017-10-24T15:55:07.500Z,15.80
2017-10-24T15:57:36.352Z,15.80
2017-10-24T16:00:05.276Z,15.80
2017-10-24T16:02:35.103Z,15.70
2017-10-24T16:05:03.603Z,15.70
2017-10-24T16:07:32.516Z,15.60
2017-10-24T16:10:01.360Z,15.50
2017-10-24T16:12:30.221Z,15.50
2017-10-24T16:14:59.624Z,15.40
2017-10-24T16:17:28.467Z,15.40
2017-10-24T16:19:58.080Z,15.40
2017-10-24T16:22:27.703Z,15.30
2017-10-24T16:35:29.974Z,15.30
2017-10-24T16:37:58.826Z,15.10
2017-10-24T16:40:28.438Z,15.10
2017-10-24T16:42:58.962Z,15.10
2017-10-24T16:45:28.573Z,15.00
2017-10-24T16:47:57.430Z,15.00
2017-10-24T16:50:26.279Z,15.00
2017-10-24T16:52:55.139Z,14.90
2017-10-24T16:55:24.768Z,14.90
2017-10-24T16:57:53.628Z,14.90
2017-10-24T17:00:22.499Z,14.90
2017-10-24T17:02:51.346Z,14.90
2017-10-24T17:05:21.000Z,14.90
2017-10-24T17:07:49.851Z,14.80
2017-10-24T17:10:18.449Z,14.90
2017-10-24T17:12:52.364Z,14.90
2017-10-24T17:15:25.036Z,14.90
2017-10-24T17:17:53.947Z,14.80
2017-10-24T17:20:22.852Z,14.80
2017-10-24T17:22:51.972Z,14.80
2017-10-24T17:25:22.466Z,14.70
2017-10-24T17:27:51.347Z,14.70
2017-10-24T17:30:20.209Z,14.70
2017-10-24T17:32:49.055Z,14.70
2017-10-24T17:35:17.910Z,14.70
2017-10-24T17:37:46.799Z,14.70
2017-10-24T17:40:15.649Z,14.70
2017-10-24T17:42:46.132Z,14.70
2017-10-24T17:45:15.004Z,14.60
2017-10-24T17:47:43.867Z,14.60
2017-10-24T17:50:13.502Z,14.60
2017-10-24T17:52:42.656Z,14.60
2017-10-24T17:55:11.523Z,14.60
2017-10-24T17:57:40.374Z,14.60
2017-10-24T18:00:09.260Z,14.60
2017-10-24T18:02:39.226Z,14.60
2017-10-24T18:05:08.277Z,14.50
2017-10-24T18:07:37.144Z,14.50
2017-10-24T18:10:06.499Z,14.40
2017-10-24T18:12:35.370Z,14.40
2017-10-24T18:15:04.433Z,14.40
2017-10-24T18:17:34.732Z,14.30
2017-10-24T18:20:03.395Z,14.30
2017-10-24T18:22:32.248Z,14.30
2017-10-24T18:25:01.907Z,14.30
2017-10-24T18:27:31.416Z,14.20
2017-10-24T18:30:02.783Z,14.20
2017-10-24T18:32:31.646Z,14.20
2017-10-24T18:35:00.961Z,14.20
2017-10-24T18:37:29.814Z,14.20
2017-10-24T18:39:58.668Z,14.20
2017-10-24T18:42:27.528Z,14.20
2017-10-24T18:44:56.407Z,14.20
2017-10-24T18:47:25.100Z,14.20
2017-10-24T18:49:53.986Z,14.20
2017-10-24T18:52:23.142Z,14.20
2017-10-24T18:54:52.586Z,14.10
2017-10-24T18:57:21.777Z,14.10
2017-10-24T18:59:51.078Z,14.10
2017-10-24T19:02:19.767Z,14.10
2017-10-24T19:04:48.452Z,14.00
2017-10-24T19:07:17.980Z,14.00
2017-10-24T19:09:46.899Z,14.00
2017-10-24T19:12:15.972Z,14.00
2017-10-24T19:14:44.826Z,14.00
2017-10-24T19:17:13.687Z,14.00
2017-10-24T19:19:42.532Z,14.00
2017-10-24T19:22:12.359Z,14.00
2017-10-24T19:24:41.250Z,14.00
2017-10-24T19:27:11.316Z,14.00
2017-10-24T19:29:40.950Z,14.00
2017-10-24T19:32:09.822Z,13.90
2017-10-24T19:34:41.169Z,13.90
2017-10-24T19:37:12.682Z,13.90
2017-10-24T19:39:41.802Z,13.90
2017-10-24T19:42:11.252Z,13.90
2017-10-24T19:44:41.158Z,13.90
2017-10-24T19:47:10.308Z,13.90
2017-10-24T19:49:39.147Z,13.90
2017-10-24T19:52:08.006Z,13.90
2017-10-24T19:54:39.132Z,13.90
2017-10-24T19:57:10.195Z,13.90
2017-10-24T19:59:39.400Z,13.90
2017-10-24T20:02:08.238Z,13.90
2017-10-24T20:04:37.136Z,13.80
2017-10-24T20:07:06.596Z,13.80
2017-10-24T20:09:35.470Z,13.80
2017-10-24T20:12:04.591Z,13.80
2017-10-24T20:14:35.242Z,13.80
2017-10-24T20:21:34.919Z,13.80
2017-10-24T20:24:03.433Z,13.70
2017-10-24T20:26:33.965Z,13.80
2017-10-24T20:29:04.370Z,13.70
2017-10-24T20:31:33.222Z,13.70
2017-10-24T20:34:07.006Z,13.70
2017-10-24T20:36:35.893Z,13.70
2017-10-24T20:39:05.106Z,13.70
2017-10-24T20:41:34.270Z,13.70
2017-10-24T20:44:03.107Z,13.70
2017-10-24T20:46:31.980Z,13.70
2017-10-24T20:49:00.558Z,13.70
2017-10-24T20:51:30.957Z,13.70
2017-10-24T20:54:01.034Z,13.80
2017-10-24T20:56:30.641Z,13.80
2017-10-24T20:58:59.489Z,13.70
2017-10-24T21:01:29.911Z,13.80
2017-10-24T21:03:59.514Z,13.80
2017-10-24T21:06:28.363Z,13.80
2017-10-24T21:08:57.209Z,13.80
2017-10-24T21:11:26.839Z,13.80
2017-10-24T21:13:56.272Z,13.80
2017-10-24T21:16:25.123Z,13.80
2017-10-24T21:18:53.983Z,13.80
2017-10-24T21:21:25.498Z,13.80
2017-10-24T21:23:54.362Z,13.80
2017-10-24T21:26:23.223Z,13.80
2017-10-24T21:28:52.845Z,13.80
2017-10-24T21:31:22.476Z,13.70
2017-10-24T21:33:51.314Z,13.70
2017-10-24T21:36:20.167Z,13.80
2017-10-24T21:38:48.826Z,13.80
2017-10-24T21:41:18.469Z,13.80
2017-10-24T21:43:47.360Z,13.80
2017-10-24T21:46:16.260Z,13.80
2017-10-24T21:48:45.114Z,13.80
2017-10-24T21:51:14.722Z,13.80
2017-10-24T21:53:44.358Z,13.80
2017-10-24T21:56:13.226Z,13.80
2017-10-24T21:58:42.867Z,13.80
2017-10-24T22:01:12.498Z,13.80
2017-10-24T22:03:41.350Z,13.80
2017-10-24T22:06:10.209Z,13.80
2017-10-24T22:08:39.823Z,13.80
2017-10-24T22:11:08.659Z,13.80
2017-10-24T22:13:37.523Z,13.80
2017-10-24T22:16:06.379Z,13.80
2017-10-24T22:18:35.047Z,13.80
2017-10-24T22:21:03.913Z,13.80
2017-10-24T22:23:32.762Z,13.90
2017-10-24T22:26:02.193Z,13.90
2017-10-24T22:28:30.845Z,13.90
2017-10-24T22:31:00.486Z,13.90
2017-10-24T22:33:29.331Z,13.90
2017-10-24T22:35:58.167Z,13.90
2017-10-24T22:38:27.006Z,13.90
2017-10-24T22:40:55.850Z,13.90
2017-10-24T22:43:24.684Z,13.90
2017-10-24T22:45:53.523Z,13.90
2017-10-24T22:48:22.358Z,13.80
2017-10-24T22:50:51.212Z,13.80
2017-10-24T22:53:20.053Z,13.80
2017-10-24T22:55:48.894Z,13.80
2017-10-24T22:58:17.742Z,13.80
2017-10-24T23:00:46.590Z,13.80
2017-10-24T23:03:15.441Z,13.80
2017-10-24T23:05:45.050Z,13.80
2017-10-24T23:08:14.799Z,13.80
2017-10-24T23:10:43.689Z,13.80
2017-10-24T23:13:12.534Z,13.80
2017-10-24T23:15:41.375Z,13.80
2017-10-24T23:18:10.997Z,13.70
2017-10-24T23:20:40.630Z,13.70
2017-10-24T23:23:09.496Z,13.70
2017-10-24T23:25:38.378Z,13.70
2017-10-24T23:28:07.558Z,13.70
2017-10-24T23:30:36.431Z,13.70
2017-10-24T23:33:05.296Z,13.70
2017-10-24T23:35:34.919Z,13.70
2017-10-24T23:38:04.586Z,13.70
2017-10-24T23:40:33.448Z,13.70
2017-10-24T23:43:02.297Z,13.80
2017-10-24T23:45:31.155Z,13.80
2017-10-24T23:48:00.019Z,13.80
2017-10-24T23:50:28.883Z,13.80
2017-10-24T23:52:58.520Z,13.80
2017-10-24T23:55:27.417Z,13.70
2017-10-24T23:57:56.275Z,13.80
